sensor_id;sensor_type;location;lat;lon;timestamp;P1;durP1;ratioP1;P2;durP2;ratioP2
8938;SDS011;4504;48.810;9.172;2022-07-23T00:00:39;98.40;;;2.17;;
8938;SDS011;4504;48.810;9.172;2022-07-23T00:03:06;99.50;;;2.47;;
8938;SDS011;4504;48.810;9.172;2022-07-23T00:05:34;101.20;;;2.30;;
8938;SDS011;4504;48.810;9.172;2022-07-23T00:08:03;101.43;;;2.40;;
8938;SDS011;4504;48.810;9.172;2022-07-23T00:10:30;99.53;;;2.37;;
8938;SDS011;4504;48.810;9.172;2022-07-23T00:12:57;100.30;;;2.37;;
8938;SDS011;4504;48.810;9.172;2022-07-23T00:15:24;101.97;;;2.40;;
8938;SDS011;4504;48.810;9.172;2022-07-23T00:17:51;99.90;;;2.07;;
8938;SDS011;4504;48.810;9.172;2022-07-23T00:20:18;98.90;;;2.00;;
8938;SDS011;4504;48.810;9.172;2022-07-23T00:22:46;99.03;;;2.40;;
8938;SDS011;4504;48.810;9.172;2022-07-23T00:25:15;98.50;;;2.33;;
8938;SDS011;4504;48.810;9.172;2022-07-23T00:27:42;99.97;;;2.50;;
8938;SDS011;4504;48.810;9.172;2022-07-23T00:30:10;101.97;;;2.87;;
8938;SDS011;4504;48.810;9.172;2022-07-23T00:32:45;97.80;;;2.30;;
8938;SDS011;4504;48.810;9.172;2022-07-23T00:35:13;98.60;;;2.27;;
8938;SDS011;4504;48.810;9.172;2022-07-23T00:37:40;98.67;;;2.37;;
8938;SDS011;4504;48.810;9.172;2022-07-23T00:40:08;98.50;;;2.33;;
8938;SDS011;4504;48.810;9.172;2022-07-23T00:42:38;99.30;;;2.37;;
8938;SDS011;4504;48.810;9.172;2022-07-23T00:45:06;99.53;;;2.33;;
8938;SDS011;4504;48.810;9.172;2022-07-23T00:47:33;98.97;;;2.30;;
8938;SDS011;4504;48.810;9.172;2022-07-23T00:50:01;99.57;;;2.10;;
8938;SDS011;4504;48.810;9.172;2022-07-23T00:52:29;99.83;;;2.50;;
8938;SDS011;4504;48.810;9.172;2022-07-23T00:54:57;100.37;;;2.27;;
8938;SDS011;4504;48.810;9.172;2022-07-23T00:57:24;99.60;;;2.53;;
8938;SDS011;4504;48.810;9.172;2022-07-23T00:59:54;99.37;;;2.07;;
8938;SDS011;4504;48.810;9.172;2022-07-23T01:02:21;98.17;;;2.37;;
8938;SDS011;4504;48.810;9.172;2022-07-23T01:04:48;101.00;;;2.73;;
8938;SDS011;4504;48.810;9.172;2022-07-23T01:07:15;100.37;;;2.30;;
8938;SDS011;4504;48.810;9.172;2022-07-23T01:09:43;100.60;;;2.20;;
8938;SDS011;4504;48.810;9.172;2022-07-23T01:12:11;98.33;;;2.33;;
8938;SDS011;4504;48.810;9.172;2022-07-23T01:14:38;100.70;;;2.70;;
8938;SDS011;4504;48.810;9.172;2022-07-23T01:17:07;100.90;;;2.50;;
8938;SDS011;4504;48.810;9.172;2022-07-23T01:19:34;99.17;;;2.60;;
8938;SDS011;4504;48.810;9.172;2022-07-23T01:22:02;99.07;;;2.33;;
8938;SDS011;4504;48.810;9.172;2022-07-23T01:24:31;98.40;;;2.10;;
8938;SDS011;4504;48.810;9.172;2022-07-23T01:27:02;100.87;;;2.40;;
8938;SDS011;4504;48.810;9.172;2022-07-23T01:29:31;101.07;;;2.50;;
8938;SDS011;4504;48.810;9.172;2022-07-23T01:32:01;100.67;;;2.40;;
8938;SDS011;4504;48.810;9.172;2022-07-23T01:34:29;100.57;;;2.50;;
8938;SDS011;4504;48.810;9.172;2022-07-23T01:36:56;99.87;;;2.73;;
8938;SDS011;4504;48.810;9.172;2022-07-23T01:39:23;100.33;;;2.37;;
8938;SDS011;4504;48.810;9.172;2022-07-23T01:41:52;100.37;;;2.40;;
8938;SDS011;4504;48.810;9.172;2022-07-23T01:44:20;101.03;;;2.60;;
8938;SDS011;4504;48.810;9.172;2022-07-23T01:46:47;103.50;;;2.37;;
8938;SDS011;4504;48.810;9.172;2022-07-23T01:49:16;101.30;;;2.80;;
8938;SDS011;4504;48.810;9.172;2022-07-23T01:52:01;101.37;;;2.90;;
8938;SDS011;4504;48.810;9.172;2022-07-23T01:54:43;101.00;;;2.50;;
8938;SDS011;4504;48.810;9.172;2022-07-23T01:57:12;99.90;;;2.33;;
8938;SDS011;4504;48.810;9.172;2022-07-23T01:59:39;100.40;;;2.43;;
8938;SDS011;4504;48.810;9.172;2022-07-23T02:02:08;101.00;;;2.80;;
8938;SDS011;4504;48.810;9.172;2022-07-23T02:04:36;100.97;;;2.80;;
8938;SDS011;4504;48.810;9.172;2022-07-23T02:07:03;100.53;;;2.50;;
8938;SDS011;4504;48.810;9.172;2022-07-23T02:09:31;100.47;;;2.67;;
8938;SDS011;4504;48.810;9.172;2022-07-23T02:11:58;101.27;;;2.20;;
8938;SDS011;4504;48.810;9.172;2022-07-23T02:14:27;105.80;;;2.57;;
8938;SDS011;4504;48.810;9.172;2022-07-23T02:16:54;99.30;;;2.33;;
8938;SDS011;4504;48.810;9.172;2022-07-23T02:19:21;99.13;;;2.70;;
8938;SDS011;4504;48.810;9.172;2022-07-23T02:21:48;101.47;;;2.90;;
8938;SDS011;4504;48.810;9.172;2022-07-23T02:24:18;101.47;;;2.13;;
8938;SDS011;4504;48.810;9.172;2022-07-23T02:26:45;100.07;;;2.60;;
8938;SDS011;4504;48.810;9.172;2022-07-23T02:29:12;101.90;;;2.90;;
8938;SDS011;4504;48.810;9.172;2022-07-23T02:31:41;99.93;;;2.43;;
8938;SDS011;4504;48.810;9.172;2022-07-23T02:34:08;99.70;;;2.27;;
8938;SDS011;4504;48.810;9.172;2022-07-23T02:36:37;100.30;;;2.80;;
8938;SDS011;4504;48.810;9.172;2022-07-23T02:39:04;100.23;;;2.57;;
8938;SDS011;4504;48.810;9.172;2022-07-23T02:41:33;100.00;;;2.40;;
8938;SDS011;4504;48.810;9.172;2022-07-23T02:44:00;100.37;;;2.40;;
8938;SDS011;4504;48.810;9.172;2022-07-23T02:46:27;99.63;;;2.60;;
8938;SDS011;4504;48.810;9.172;2022-07-23T02:48:57;99.97;;;2.47;;
8938;SDS011;4504;48.810;9.172;2022-07-23T02:51:24;102.07;;;3.20;;
8938;SDS011;4504;48.810;9.172;2022-07-23T02:53:56;99.77;;;2.70;;
8938;SDS011;4504;48.810;9.172;2022-07-23T02:56:24;100.87;;;2.90;;
8938;SDS011;4504;48.810;9.172;2022-07-23T02:58:51;100.67;;;2.47;;
8938;SDS011;4504;48.810;9.172;2022-07-23T03:01:18;101.50;;;2.40;;
8938;SDS011;4504;48.810;9.172;2022-07-23T03:03:45;100.80;;;2.50;;
8938;SDS011;4504;48.810;9.172;2022-07-23T03:06:14;100.27;;;2.23;;
8938;SDS011;4504;48.810;9.172;2022-07-23T03:08:41;100.77;;;2.53;;
8938;SDS011;4504;48.810;9.172;2022-07-23T03:11:08;101.87;;;2.77;;
8938;SDS011;4504;48.810;9.172;2022-07-23T03:13:37;100.87;;;2.47;;
8938;SDS011;4504;48.810;9.172;2022-07-23T03:16:05;104.80;;;2.47;;
8938;SDS011;4504;48.810;9.172;2022-07-23T03:18:35;101.50;;;3.30;;
8938;SDS011;4504;48.810;9.172;2022-07-23T03:21:03;101.70;;;2.80;;
8938;SDS011;4504;48.810;9.172;2022-07-23T03:23:31;101.27;;;2.50;;
8938;SDS011;4504;48.810;9.172;2022-07-23T03:25:58;101.17;;;2.87;;
8938;SDS011;4504;48.810;9.172;2022-07-23T03:28:25;102.00;;;2.87;;
8938;SDS011;4504;48.810;9.172;2022-07-23T03:30:52;102.33;;;2.57;;
8938;SDS011;4504;48.810;9.172;2022-07-23T03:33:20;99.67;;;2.53;;
8938;SDS011;4504;48.810;9.172;2022-07-23T03:35:47;101.17;;;2.53;;
8938;SDS011;4504;48.810;9.172;2022-07-23T03:38:21;101.27;;;2.37;;
8938;SDS011;4504;48.810;9.172;2022-07-23T03:40:50;101.07;;;2.80;;
8938;SDS011;4504;48.810;9.172;2022-07-23T03:43:17;102.13;;;2.50;;
8938;SDS011;4504;48.810;9.172;2022-07-23T03:45:45;101.93;;;2.70;;
8938;SDS011;4504;48.810;9.172;2022-07-23T03:48:13;100.50;;;2.77;;
8938;SDS011;4504;48.810;9.172;2022-07-23T03:50:40;101.77;;;2.57;;
8938;SDS011;4504;48.810;9.172;2022-07-23T03:53:07;101.97;;;2.73;;
8938;SDS011;4504;48.810;9.172;2022-07-23T03:55:34;101.50;;;2.57;;
8938;SDS011;4504;48.810;9.172;2022-07-23T03:58:03;101.80;;;2.57;;
8938;SDS011;4504;48.810;9.172;2022-07-23T04:00:31;102.07;;;2.40;;
8938;SDS011;4504;48.810;9.172;2022-07-23T04:02:58;101.40;;;2.60;;
8938;SDS011;4504;48.810;9.172;2022-07-23T04:05:25;102.40;;;2.87;;
8938;SDS011;4504;48.810;9.172;2022-07-23T04:07:59;102.27;;;2.73;;
8938;SDS011;4504;48.810;9.172;2022-07-23T04:10:27;101.33;;;2.70;;
8938;SDS011;4504;48.810;9.172;2022-07-23T04:12:54;102.13;;;2.80;;
8938;SDS011;4504;48.810;9.172;2022-07-23T04:15:22;101.00;;;2.53;;
8938;SDS011;4504;48.810;9.172;2022-07-23T04:17:49;102.10;;;2.83;;
8938;SDS011;4504;48.810;9.172;2022-07-23T04:20:18;101.10;;;3.10;;
8938;SDS011;4504;48.810;9.172;2022-07-23T04:22:52;101.40;;;2.87;;
8938;SDS011;4504;48.810;9.172;2022-07-23T04:25:19;102.90;;;2.40;;
8938;SDS011;4504;48.810;9.172;2022-07-23T04:27:47;100.80;;;2.50;;
8938;SDS011;4504;48.810;9.172;2022-07-23T04:30:14;100.40;;;2.47;;
8938;SDS011;4504;48.810;9.172;2022-07-23T04:32:42;101.10;;;2.47;;
8938;SDS011;4504;48.810;9.172;2022-07-23T04:35:17;102.10;;;2.60;;
8938;SDS011;4504;48.810;9.172;2022-07-23T04:37:45;101.87;;;2.80;;
8938;SDS011;4504;48.810;9.172;2022-07-23T04:40:14;101.17;;;2.57;;
8938;SDS011;4504;48.810;9.172;2022-07-23T04:42:41;101.00;;;2.87;;
8938;SDS011;4504;48.810;9.172;2022-07-23T04:45:08;100.27;;;3.00;;
8938;SDS011;4504;48.810;9.172;2022-07-23T04:47:36;100.90;;;2.47;;
8938;SDS011;4504;48.810;9.172;2022-07-23T04:50:05;99.77;;;2.60;;
8938;SDS011;4504;48.810;9.172;2022-07-23T04:52:34;100.87;;;2.93;;
8938;SDS011;4504;48.810;9.172;2022-07-23T04:55:01;101.50;;;2.67;;
8938;SDS011;4504;48.810;9.172;2022-07-23T04:57:29;101.47;;;2.80;;
8938;SDS011;4504;48.810;9.172;2022-07-23T04:59:56;104.07;;;2.37;;
8938;SDS011;4504;48.810;9.172;2022-07-23T05:02:24;102.20;;;3.00;;
8938;SDS011;4504;48.810;9.172;2022-07-23T05:04:51;102.47;;;3.07;;
8938;SDS011;4504;48.810;9.172;2022-07-23T05:07:20;99.50;;;2.53;;
8938;SDS011;4504;48.810;9.172;2022-07-23T05:09:47;100.20;;;2.63;;
8938;SDS011;4504;48.810;9.172;2022-07-23T05:12:14;102.00;;;2.80;;
8938;SDS011;4504;48.810;9.172;2022-07-23T05:14:43;101.97;;;3.07;;
8938;SDS011;4504;48.810;9.172;2022-07-23T05:17:10;100.60;;;2.30;;
8938;SDS011;4504;48.810;9.172;2022-07-23T05:19:38;102.40;;;3.00;;
8938;SDS011;4504;48.810;9.172;2022-07-23T05:22:05;99.87;;;2.70;;
8938;SDS011;4504;48.810;9.172;2022-07-23T05:24:33;100.90;;;2.47;;
8938;SDS011;4504;48.810;9.172;2022-07-23T05:27:01;103.40;;;2.50;;
8938;SDS011;4504;48.810;9.172;2022-07-23T05:29:28;100.70;;;2.80;;
8938;SDS011;4504;48.810;9.172;2022-07-23T05:31:55;101.47;;;2.70;;
8938;SDS011;4504;48.810;9.172;2022-07-23T05:34:22;101.57;;;3.20;;
8938;SDS011;4504;48.810;9.172;2022-07-23T05:36:50;104.47;;;3.07;;
8938;SDS011;4504;48.810;9.172;2022-07-23T05:39:17;100.50;;;2.63;;
8938;SDS011;4504;48.810;9.172;2022-07-23T05:41:46;101.10;;;2.63;;
8938;SDS011;4504;48.810;9.172;2022-07-23T05:44:13;101.13;;;2.80;;
8938;SDS011;4504;48.810;9.172;2022-07-23T05:46:42;105.60;;;2.50;;
8938;SDS011;4504;48.810;9.172;2022-07-23T05:49:14;101.63;;;2.60;;
8938;SDS011;4504;48.810;9.172;2022-07-23T05:52:03;99.90;;;2.57;;
8938;SDS011;4504;48.810;9.172;2022-07-23T05:54:47;99.97;;;2.37;;
8938;SDS011;4504;48.810;9.172;2022-07-23T05:57:16;100.10;;;2.30;;
8938;SDS011;4504;48.810;9.172;2022-07-23T05:59:43;101.50;;;2.70;;
8938;SDS011;4504;48.810;9.172;2022-07-23T06:02:10;101.23;;;2.63;;
8938;SDS011;4504;48.810;9.172;2022-07-23T06:04:37;101.50;;;3.00;;
8938;SDS011;4504;48.810;9.172;2022-07-23T06:07:20;102.63;;;2.63;;
8938;SDS011;4504;48.810;9.172;2022-07-23T06:09:47;101.93;;;2.83;;
8938;SDS011;4504;48.810;9.172;2022-07-23T06:12:16;103.37;;;2.93;;
8938;SDS011;4504;48.810;9.172;2022-07-23T06:14:44;100.13;;;2.80;;
8938;SDS011;4504;48.810;9.172;2022-07-23T06:17:14;101.70;;;2.80;;
8938;SDS011;4504;48.810;9.172;2022-07-23T06:19:41;100.77;;;2.60;;
8938;SDS011;4504;48.810;9.172;2022-07-23T06:22:09;103.07;;;2.43;;
8938;SDS011;4504;48.810;9.172;2022-07-23T06:24:36;102.47;;;3.17;;
8938;SDS011;4504;48.810;9.172;2022-07-23T06:27:03;101.00;;;2.53;;
8938;SDS011;4504;48.810;9.172;2022-07-23T06:29:31;100.50;;;2.73;;
8938;SDS011;4504;48.810;9.172;2022-07-23T06:31:58;102.10;;;3.07;;
8938;SDS011;4504;48.810;9.172;2022-07-23T06:34:27;101.17;;;2.50;;
8938;SDS011;4504;48.810;9.172;2022-07-23T06:36:55;101.37;;;2.60;;
8938;SDS011;4504;48.810;9.172;2022-07-23T06:39:22;100.73;;;2.73;;
8938;SDS011;4504;48.810;9.172;2022-07-23T06:41:49;101.50;;;2.40;;
8938;SDS011;4504;48.810;9.172;2022-07-23T06:44:16;101.17;;;2.80;;
8938;SDS011;4504;48.810;9.172;2022-07-23T06:46:48;102.80;;;3.40;;
8938;SDS011;4504;48.810;9.172;2022-07-23T06:49:15;101.50;;;3.10;;
8938;SDS011;4504;48.810;9.172;2022-07-23T06:51:42;101.77;;;2.70;;
8938;SDS011;4504;48.810;9.172;2022-07-23T06:54:09;101.67;;;2.53;;
8938;SDS011;4504;48.810;9.172;2022-07-23T06:56:37;103.77;;;2.60;;
8938;SDS011;4504;48.810;9.172;2022-07-23T06:59:04;103.80;;;3.20;;
8938;SDS011;4504;48.810;9.172;2022-07-23T07:01:31;101.67;;;2.67;;
8938;SDS011;4504;48.810;9.172;2022-07-23T07:04:00;102.30;;;2.97;;
8938;SDS011;4504;48.810;9.172;2022-07-23T07:06:27;101.23;;;2.97;;
8938;SDS011;4504;48.810;9.172;2022-07-23T07:08:54;101.00;;;2.50;;
8938;SDS011;4504;48.810;9.172;2022-07-23T07:11:21;101.33;;;2.87;;
8938;SDS011;4504;48.810;9.172;2022-07-23T07:13:49;101.67;;;3.30;;
8938;SDS011;4504;48.810;9.172;2022-07-23T07:16:16;101.57;;;2.60;;
8938;SDS011;4504;48.810;9.172;2022-07-23T07:18:43;102.00;;;2.80;;
8938;SDS011;4504;48.810;9.172;2022-07-23T07:21:11;102.07;;;2.87;;
8938;SDS011;4504;48.810;9.172;2022-07-23T07:23:38;102.43;;;3.10;;
8938;SDS011;4504;48.810;9.172;2022-07-23T07:26:05;101.77;;;2.30;;
8938;SDS011;4504;48.810;9.172;2022-07-23T07:28:32;102.50;;;2.90;;
8938;SDS011;4504;48.810;9.172;2022-07-23T07:31:00;100.30;;;2.80;;
8938;SDS011;4504;48.810;9.172;2022-07-23T07:33:27;103.97;;;3.50;;
8938;SDS011;4504;48.810;9.172;2022-07-23T07:35:54;102.47;;;3.30;;
8938;SDS011;4504;48.810;9.172;2022-07-23T07:38:22;103.80;;;3.47;;
8938;SDS011;4504;48.810;9.172;2022-07-23T07:40:49;102.50;;;3.10;;
8938;SDS011;4504;48.810;9.172;2022-07-23T07:43:16;102.40;;;3.00;;
8938;SDS011;4504;48.810;9.172;2022-07-23T07:45:43;102.80;;;2.87;;
8938;SDS011;4504;48.810;9.172;2022-07-23T07:48:10;102.53;;;2.80;;
8938;SDS011;4504;48.810;9.172;2022-07-23T07:50:37;102.47;;;3.00;;
8938;SDS011;4504;48.810;9.172;2022-07-23T07:53:04;101.87;;;2.93;;
8938;SDS011;4504;48.810;9.172;2022-07-23T07:55:33;102.47;;;3.13;;
8938;SDS011;4504;48.810;9.172;2022-07-23T07:58:00;108.20;;;2.83;;
8938;SDS011;4504;48.810;9.172;2022-07-23T08:00:27;101.60;;;2.60;;
8938;SDS011;4504;48.810;9.172;2022-07-23T08:02:54;104.67;;;2.90;;
8938;SDS011;4504;48.810;9.172;2022-07-23T08:05:22;102.63;;;2.80;;
8938;SDS011;4504;48.810;9.172;2022-07-23T08:07:50;100.97;;;3.00;;
8938;SDS011;4504;48.810;9.172;2022-07-23T08:10:18;102.33;;;2.80;;
8938;SDS011;4504;48.810;9.172;2022-07-23T08:12:48;103.60;;;3.40;;
8938;SDS011;4504;48.810;9.172;2022-07-23T08:15:19;102.50;;;3.17;;
8938;SDS011;4504;48.810;9.172;2022-07-23T08:17:47;102.53;;;2.70;;
8938;SDS011;4504;48.810;9.172;2022-07-23T08:20:15;102.57;;;2.80;;
8938;SDS011;4504;48.810;9.172;2022-07-23T08:22:44;102.80;;;3.43;;
8938;SDS011;4504;48.810;9.172;2022-07-23T08:25:13;104.70;;;3.27;;
8938;SDS011;4504;48.810;9.172;2022-07-23T08:27:41;103.00;;;2.90;;
8938;SDS011;4504;48.810;9.172;2022-07-23T08:30:09;103.60;;;3.20;;
8938;SDS011;4504;48.810;9.172;2022-07-23T08:32:56;102.10;;;2.80;;
8938;SDS011;4504;48.810;9.172;2022-07-23T08:35:26;102.37;;;3.00;;
8938;SDS011;4504;48.810;9.172;2022-07-23T08:37:55;102.10;;;2.87;;
8938;SDS011;4504;48.810;9.172;2022-07-23T08:40:23;103.83;;;2.97;;
8938;SDS011;4504;48.810;9.172;2022-07-23T08:42:52;102.00;;;2.67;;
8938;SDS011;4504;48.810;9.172;2022-07-23T08:45:22;102.30;;;2.63;;
8938;SDS011;4504;48.810;9.172;2022-07-23T08:47:50;101.90;;;2.90;;
8938;SDS011;4504;48.810;9.172;2022-07-23T08:50:24;101.80;;;2.70;;
8938;SDS011;4504;48.810;9.172;2022-07-23T08:52:52;101.73;;;3.40;;
8938;SDS011;4504;48.810;9.172;2022-07-23T08:55:20;107.20;;;3.10;;
8938;SDS011;4504;48.810;9.172;2022-07-23T08:57:49;104.87;;;4.50;;
8938;SDS011;4504;48.810;9.172;2022-07-23T09:00:18;101.37;;;3.20;;
8938;SDS011;4504;48.810;9.172;2022-07-23T09:02:48;102.77;;;3.30;;
8938;SDS011;4504;48.810;9.172;2022-07-23T09:05:16;100.33;;;2.87;;
8938;SDS011;4504;48.810;9.172;2022-07-23T09:10:47;101.90;;;3.03;;
8938;SDS011;4504;48.810;9.172;2022-07-23T09:13:26;101.27;;;2.70;;
8938;SDS011;4504;48.810;9.172;2022-07-23T09:16:00;100.50;;;2.50;;
8938;SDS011;4504;48.810;9.172;2022-07-23T09:18:32;104.33;;;3.00;;
8938;SDS011;4504;48.810;9.172;2022-07-23T09:21:10;100.50;;;2.63;;
8938;SDS011;4504;48.810;9.172;2022-07-23T09:23:49;100.07;;;2.40;;
8938;SDS011;4504;48.810;9.172;2022-07-23T09:26:23;99.97;;;2.73;;
8938;SDS011;4504;48.810;9.172;2022-07-23T09:28:55;103.00;;;3.40;;
8938;SDS011;4504;48.810;9.172;2022-07-23T09:31:27;100.80;;;2.83;;
8938;SDS011;4504;48.810;9.172;2022-07-23T09:34:06;99.97;;;2.60;;
8938;SDS011;4504;48.810;9.172;2022-07-23T09:36:34;99.60;;;2.60;;
8938;SDS011;4504;48.810;9.172;2022-07-23T09:39:01;100.23;;;2.60;;
8938;SDS011;4504;48.810;9.172;2022-07-23T09:41:33;99.67;;;2.70;;
8938;SDS011;4504;48.810;9.172;2022-07-23T09:44:06;100.37;;;3.00;;
8938;SDS011;4504;48.810;9.172;2022-07-23T09:46:39;100.17;;;2.60;;
8938;SDS011;4504;48.810;9.172;2022-07-23T09:49:13;101.27;;;2.73;;
8938;SDS011;4504;48.810;9.172;2022-07-23T09:51:49;100.00;;;2.90;;
8938;SDS011;4504;48.810;9.172;2022-07-23T09:54:28;98.60;;;2.50;;
8938;SDS011;4504;48.810;9.172;2022-07-23T09:57:01;99.93;;;2.43;;
8938;SDS011;4504;48.810;9.172;2022-07-23T09:59:31;99.63;;;2.70;;
8938;SDS011;4504;48.810;9.172;2022-07-23T10:02:02;100.50;;;2.53;;
8938;SDS011;4504;48.810;9.172;2022-07-23T10:04:37;99.30;;;2.47;;
8938;SDS011;4504;48.810;9.172;2022-07-23T10:07:12;99.10;;;2.50;;
8938;SDS011;4504;48.810;9.172;2022-07-23T10:10:03;98.30;;;2.27;;
8938;SDS011;4504;48.810;9.172;2022-07-23T10:12:37;98.73;;;2.43;;
8938;SDS011;4504;48.810;9.172;2022-07-23T10:15:27;98.50;;;2.60;;
8938;SDS011;4504;48.810;9.172;2022-07-23T10:17:56;98.97;;;2.37;;
8938;SDS011;4504;48.810;9.172;2022-07-23T10:20:23;99.63;;;2.30;;
8938;SDS011;4504;48.810;9.172;2022-07-23T10:22:53;99.63;;;2.63;;
8938;SDS011;4504;48.810;9.172;2022-07-23T10:25:29;99.60;;;2.47;;
8938;SDS011;4504;48.810;9.172;2022-07-23T10:28:18;99.20;;;2.77;;
8938;SDS011;4504;48.810;9.172;2022-07-23T10:31:00;98.53;;;2.50;;
8938;SDS011;4504;48.810;9.172;2022-07-23T10:33:37;99.30;;;2.80;;
8938;SDS011;4504;48.810;9.172;2022-07-23T10:36:18;97.70;;;2.67;;
8938;SDS011;4504;48.810;9.172;2022-07-23T10:38:50;98.50;;;2.57;;
8938;SDS011;4504;48.810;9.172;2022-07-23T10:41:30;98.80;;;2.60;;
8938;SDS011;4504;48.810;9.172;2022-07-23T10:44:05;98.60;;;2.50;;
8938;SDS011;4504;48.810;9.172;2022-07-23T10:49:38;99.63;;;2.60;;
8938;SDS011;4504;48.810;9.172;2022-07-23T10:52:15;97.77;;;2.73;;
8938;SDS011;4504;48.810;9.172;2022-07-23T10:54:47;98.50;;;2.47;;
8938;SDS011;4504;48.810;9.172;2022-07-23T10:57:30;98.77;;;2.70;;
8938;SDS011;4504;48.810;9.172;2022-07-23T11:00:19;97.60;;;2.40;;
8938;SDS011;4504;48.810;9.172;2022-07-23T11:02:49;97.13;;;2.40;;
8938;SDS011;4504;48.810;9.172;2022-07-23T11:05:19;97.87;;;2.50;;
8938;SDS011;4504;48.810;9.172;2022-07-23T11:10:41;97.90;;;2.70;;
8938;SDS011;4504;48.810;9.172;2022-07-23T11:13:25;97.20;;;2.50;;
8938;SDS011;4504;48.810;9.172;2022-07-23T11:16:03;96.87;;;2.30;;
8938;SDS011;4504;48.810;9.172;2022-07-23T11:21:42;97.93;;;2.60;;
8938;SDS011;4504;48.810;9.172;2022-07-23T11:24:11;97.67;;;2.43;;
8938;SDS011;4504;48.810;9.172;2022-07-23T11:26:43;97.90;;;2.43;;
8938;SDS011;4504;48.810;9.172;2022-07-23T11:32:11;97.47;;;2.33;;
8938;SDS011;4504;48.810;9.172;2022-07-23T11:35:00;98.17;;;2.40;;
8938;SDS011;4504;48.810;9.172;2022-07-23T11:37:31;97.07;;;2.10;;
8938;SDS011;4504;48.810;9.172;2022-07-23T11:40:00;98.70;;;2.50;;
8938;SDS011;4504;48.810;9.172;2022-07-23T11:42:29;98.70;;;3.10;;
8938;SDS011;4504;48.810;9.172;2022-07-23T11:44:56;99.70;;;2.63;;
8938;SDS011;4504;48.810;9.172;2022-07-23T11:47:24;97.83;;;2.40;;
8938;SDS011;4504;48.810;9.172;2022-07-23T11:49:52;98.47;;;2.60;;
8938;SDS011;4504;48.810;9.172;2022-07-23T11:52:20;99.20;;;2.50;;
8938;SDS011;4504;48.810;9.172;2022-07-23T11:54:50;97.97;;;2.67;;
8938;SDS011;4504;48.810;9.172;2022-07-23T11:57:18;97.67;;;2.70;;
8938;SDS011;4504;48.810;9.172;2022-07-23T11:59:47;98.60;;;2.60;;
8938;SDS011;4504;48.810;9.172;2022-07-23T12:02:17;97.80;;;2.73;;
8938;SDS011;4504;48.810;9.172;2022-07-23T12:04:46;99.70;;;2.97;;
8938;SDS011;4504;48.810;9.172;2022-07-23T12:07:24;97.10;;;2.30;;
8938;SDS011;4504;48.810;9.172;2022-07-23T12:09:58;98.07;;;2.57;;
8938;SDS011;4504;48.810;9.172;2022-07-23T12:12:26;97.13;;;2.37;;
8938;SDS011;4504;48.810;9.172;2022-07-23T12:14:54;98.90;;;2.90;;
8938;SDS011;4504;48.810;9.172;2022-07-23T12:17:26;98.07;;;2.50;;
8938;SDS011;4504;48.810;9.172;2022-07-23T12:19:55;96.60;;;2.23;;
8938;SDS011;4504;48.810;9.172;2022-07-23T12:22:23;96.37;;;2.10;;
8938;SDS011;4504;48.810;9.172;2022-07-23T12:24:55;97.27;;;2.23;;
8938;SDS011;4504;48.810;9.172;2022-07-23T12:27:25;97.00;;;2.57;;
8938;SDS011;4504;48.810;9.172;2022-07-23T12:29:53;97.37;;;2.70;;
8938;SDS011;4504;48.810;9.172;2022-07-23T12:32:21;97.63;;;2.80;;
8938;SDS011;4504;48.810;9.172;2022-07-23T12:34:50;99.57;;;2.67;;
8938;SDS011;4504;48.810;9.172;2022-07-23T12:37:29;97.50;;;2.80;;
8938;SDS011;4504;48.810;9.172;2022-07-23T12:39:58;95.47;;;2.30;;
8938;SDS011;4504;48.810;9.172;2022-07-23T12:42:46;97.60;;;2.43;;
8938;SDS011;4504;48.810;9.172;2022-07-23T12:45:14;95.17;;;2.23;;
8938;SDS011;4504;48.810;9.172;2022-07-23T12:50:33;97.17;;;2.67;;
8938;SDS011;4504;48.810;9.172;2022-07-23T12:53:09;96.77;;;2.70;;
8938;SDS011;4504;48.810;9.172;2022-07-23T12:55:40;97.27;;;2.90;;
8938;SDS011;4504;48.810;9.172;2022-07-23T12:58:09;97.57;;;2.97;;
8938;SDS011;4504;48.810;9.172;2022-07-23T13:00:54;95.77;;;2.63;;
8938;SDS011;4504;48.810;9.172;2022-07-23T13:03:23;97.10;;;2.50;;
8938;SDS011;4504;48.810;9.172;2022-07-23T13:05:52;97.10;;;2.63;;
8938;SDS011;4504;48.810;9.172;2022-07-23T13:08:19;95.00;;;2.27;;
8938;SDS011;4504;48.810;9.172;2022-07-23T13:10:48;94.77;;;2.40;;
8938;SDS011;4504;48.810;9.172;2022-07-23T13:13:17;96.00;;;2.40;;
8938;SDS011;4504;48.810;9.172;2022-07-23T13:15:46;98.73;;;3.07;;
8938;SDS011;4504;48.810;9.172;2022-07-23T13:18:13;96.17;;;2.67;;
8938;SDS011;4504;48.810;9.172;2022-07-23T13:20:42;96.07;;;2.47;;
8938;SDS011;4504;48.810;9.172;2022-07-23T13:23:09;95.70;;;2.60;;
8938;SDS011;4504;48.810;9.172;2022-07-23T13:25:36;97.53;;;2.73;;
8938;SDS011;4504;48.810;9.172;2022-07-23T13:28:05;98.67;;;3.00;;
8938;SDS011;4504;48.810;9.172;2022-07-23T13:30:32;97.47;;;2.67;;
8938;SDS011;4504;48.810;9.172;2022-07-23T13:33:00;96.67;;;2.60;;
8938;SDS011;4504;48.810;9.172;2022-07-23T13:35:28;96.73;;;2.63;;
8938;SDS011;4504;48.810;9.172;2022-07-23T13:37:55;98.40;;;3.07;;
8938;SDS011;4504;48.810;9.172;2022-07-23T13:40:22;95.77;;;2.57;;
8938;SDS011;4504;48.810;9.172;2022-07-23T13:42:49;95.07;;;2.60;;
8938;SDS011;4504;48.810;9.172;2022-07-23T13:45:17;95.73;;;2.57;;
8938;SDS011;4504;48.810;9.172;2022-07-23T13:47:44;96.47;;;2.90;;
8938;SDS011;4504;48.810;9.172;2022-07-23T13:50:11;96.70;;;2.50;;
8938;SDS011;4504;48.810;9.172;2022-07-23T13:52:41;96.20;;;2.83;;
8938;SDS011;4504;48.810;9.172;2022-07-23T13:55:08;97.40;;;3.03;;
8938;SDS011;4504;48.810;9.172;2022-07-23T13:57:35;96.10;;;2.80;;
8938;SDS011;4504;48.810;9.172;2022-07-23T14:00:03;98.97;;;3.00;;
8938;SDS011;4504;48.810;9.172;2022-07-23T14:02:34;95.77;;;2.40;;
8938;SDS011;4504;48.810;9.172;2022-07-23T14:05:03;96.77;;;2.53;;
8938;SDS011;4504;48.810;9.172;2022-07-23T14:07:31;99.63;;;2.30;;
8938;SDS011;4504;48.810;9.172;2022-07-23T14:09:58;95.17;;;2.53;;
8938;SDS011;4504;48.810;9.172;2022-07-23T14:12:25;95.43;;;2.50;;
8938;SDS011;4504;48.810;9.172;2022-07-23T14:14:58;99.03;;;3.03;;
8938;SDS011;4504;48.810;9.172;2022-07-23T14:17:25;95.57;;;2.33;;
8938;SDS011;4504;48.810;9.172;2022-07-23T14:19:54;96.17;;;2.63;;
8938;SDS011;4504;48.810;9.172;2022-07-23T14:22:21;95.13;;;2.40;;
8938;SDS011;4504;48.810;9.172;2022-07-23T14:24:48;93.30;;;2.50;;
8938;SDS011;4504;48.810;9.172;2022-07-23T14:27:15;95.77;;;2.87;;
8938;SDS011;4504;48.810;9.172;2022-07-23T14:29:43;95.17;;;3.10;;
8938;SDS011;4504;48.810;9.172;2022-07-23T14:32:10;93.90;;;2.40;;
8938;SDS011;4504;48.810;9.172;2022-07-23T14:34:37;96.47;;;2.60;;
8938;SDS011;4504;48.810;9.172;2022-07-23T14:37:06;94.63;;;2.40;;
8938;SDS011;4504;48.810;9.172;2022-07-23T14:39:33;94.90;;;2.40;;
8938;SDS011;4504;48.810;9.172;2022-07-23T14:42:00;95.77;;;2.50;;
8938;SDS011;4504;48.810;9.172;2022-07-23T14:44:28;94.27;;;2.53;;
8938;SDS011;4504;48.810;9.172;2022-07-23T14:46:55;95.17;;;2.83;;
8938;SDS011;4504;48.810;9.172;2022-07-23T14:49:22;95.30;;;2.73;;
8938;SDS011;4504;48.810;9.172;2022-07-23T14:51:49;93.60;;;2.00;;
8938;SDS011;4504;48.810;9.172;2022-07-23T14:54:17;95.00;;;2.50;;
8938;SDS011;4504;48.810;9.172;2022-07-23T14:56:45;93.90;;;2.73;;
8938;SDS011;4504;48.810;9.172;2022-07-23T14:59:13;96.23;;;2.60;;
8938;SDS011;4504;48.810;9.172;2022-07-23T15:01:40;92.77;;;2.50;;
8938;SDS011;4504;48.810;9.172;2022-07-23T15:04:07;97.00;;;2.43;;
8938;SDS011;4504;48.810;9.172;2022-07-23T15:06:34;94.00;;;2.40;;
8938;SDS011;4504;48.810;9.172;2022-07-23T15:09:01;94.37;;;2.60;;
8938;SDS011;4504;48.810;9.172;2022-07-23T15:11:30;97.57;;;2.20;;
8938;SDS011;4504;48.810;9.172;2022-07-23T15:13:59;97.90;;;2.97;;
8938;SDS011;4504;48.810;9.172;2022-07-23T15:16:27;94.03;;;2.10;;
8938;SDS011;4504;48.810;9.172;2022-07-23T15:18:54;94.47;;;2.67;;
8938;SDS011;4504;48.810;9.172;2022-07-23T15:21:21;95.27;;;2.53;;
8938;SDS011;4504;48.810;9.172;2022-07-23T15:23:48;94.63;;;2.47;;